Time;durP1;ratioP1;P1;durP2;ratioP2;P2;SDS_P1;SDS_P2;PMS_P1;PMS_P2;Temp;Humidity;BMP_temperature;BMP_pressure;BME280_temperature;BME280_humidity;BME280_pressure;Samples;Min_cycle;Max_cycle;Signal;HPM_P1;HPM_P2
2022/07/14 00:00:24;;;;;;;8.60;2.85;;;;;;;18.01;69.35;101855.59;3592048;39;20066;-63
2022/07/14 00:02:50;;;;;;;9.18;2.72;;;;;;;17.91;69.29;101838.25;3599640;39;20062;-63
2022/07/14 00:05:16;;;;;;;10.35;2.80;;;;;;;17.76;69.52;101818.53;3599666;39;20054;-62
2022/07/14 00:07:41;;;;;;;11.50;3.17;;;;;;;17.95;69.53;101860.63;3600624;39;20055;-63
2022/07/14 00:10:07;;;;;;;8.55;3.38;;;;;;;17.94;69.24;101864.34;3595634;39;20054;-62
2022/07/14 00:12:33;;;;;;;10.02;3.38;;;;;;;17.89;69.82;101866.53;3601064;39;20386;-62
2022/07/14 00:14:59;;;;;;;10.45;3.67;;;;;;;17.86;70.41;101860.38;3599699;39;20053;-63
2022/07/14 00:17:24;;;;;;;8.95;3.03;;;;;;;17.82;70.37;101839.84;3600447;39;20372;-62
2022/07/14 00:19:50;;;;;;;10.77;3.38;;;;;;;17.84;70.68;101835.13;3600111;39;20043;-62
2022/07/14 00:22:15;;;;;;;11.57;2.92;;;;;;;17.82;70.72;101828.06;3599581;39;20054;-62
2022/07/14 00:24:41;;;;;;;13.98;3.50;;;;;;;17.81;70.88;101819.03;3601862;39;20379;-63
2022/07/14 00:27:07;;;;;;;7.97;3.10;;;;;;;17.77;71.05;101820.28;3599762;39;20394;-62
2022/07/14 00:29:35;;;;;;;12.88;3.33;;;;;;;17.79;71.37;101811.97;3600876;39;20290;-62
2022/07/14 00:32:03;;;;;;;10.40;3.13;;;;;;;17.79;71.56;101829.19;3599572;39;20083;-63
2022/07/14 00:34:28;;;;;;;11.70;3.15;;;;;;;17.80;71.29;101843.66;3598592;39;20051;-63
2022/07/14 00:36:54;;;;;;;13.65;3.45;;;;;;;17.83;71.03;101841.56;3597678;39;20478;-62
2022/07/14 00:39:19;;;;;;;8.43;2.83;;;;;;;17.86;70.81;101845.91;3595623;39;20059;-62
2022/07/14 00:41:45;;;;;;;13.07;3.40;;;;;;;17.91;70.65;101842.81;3601548;39;20051;-62
2022/07/14 00:44:11;;;;;;;12.55;3.45;;;;;;;17.94;70.60;101837.16;3597980;39;20305;-62
2022/07/14 00:46:38;;;;;;;11.05;3.08;;;;;;;17.82;70.50;101825.34;3597822;39;20129;-63
2022/07/14 00:49:04;;;;;;;13.82;3.22;;;;;;;17.89;70.61;101836.63;3598948;39;20088;-63
2022/07/14 00:51:30;;;;;;;11.98;3.40;;;;;;;17.94;70.36;101842.59;3600082;39;20378;-62
2022/07/14 00:53:55;;;;;;;12.55;3.60;;;;;;;17.93;70.40;101840.88;3601581;39;20054;-63
2022/07/14 00:56:22;;;;;;;10.73;3.15;;;;;;;17.86;70.97;101829.59;3599999;39;20067;-63
2022/07/14 00:58:48;;;;;;;13.88;3.58;;;;;;;17.87;70.36;101839.47;3601155;39;20048;-63
2022/07/14 01:01:14;;;;;;;9.55;3.22;;;;;;;17.91;71.25;101840.09;3599881;39;20054;-62
2022/07/14 01:03:39;;;;;;;10.95;3.45;;;;;;;17.86;70.98;101833.19;3599746;39;20060;-64
2022/07/14 01:06:05;;;;;;;13.70;3.58;;;;;;;17.89;70.94;101845.69;3601342;39;20052;-62
2022/07/14 01:08:31;;;;;;;14.65;3.25;;;;;;;17.88;70.53;101849.38;3599453;39;20378;-62
2022/07/14 01:10:56;;;;;;;8.95;3.50;;;;;;;17.86;71.10;101857.66;3603044;39;20175;-63
2022/07/14 01:13:22;;;;;;;13.73;4.03;;;;;;;17.88;70.67;101862.09;3599225;39;20135;-62
2022/07/14 01:15:48;;;;;;;14.70;3.58;;;;;;;17.85;71.00;101855.91;3600625;39;20058;-62
2022/07/14 01:18:14;;;;;;;13.68;3.67;;;;;;;17.83;71.02;101863.31;3603152;39;20058;-63
2022/07/14 01:20:41;;;;;;;11.32;3.55;;;;;;;17.86;70.99;101867.69;3603785;39;20133;-61
2022/07/14 01:23:07;;;;;;;9.95;3.38;;;;;;;17.81;71.37;101865.28;3602541;39;20051;-61
2022/07/14 01:25:33;;;;;;;11.35;3.58;;;;;;;17.83;71.32;101867.91;3601739;39;20047;-61
2022/07/14 01:28:00;;;;;;;10.38;3.53;;;;;;;17.89;70.86;101869.28;3602270;39;20074;-61
2022/07/14 01:30:26;;;;;;;12.05;3.25;;;;;;;17.88;71.12;101864.81;3601602;39;20059;-61
2022/07/14 01:32:52;;;;;;;9.35;3.25;;;;;;;17.83;71.40;101852.44;3598299;39;20083;-62
2022/07/14 01:35:17;;;;;;;15.77;3.80;;;;;;;17.85;71.05;101866.78;3599801;39;20074;-62
2022/07/14 01:37:43;;;;;;;14.65;3.65;;;;;;;17.84;71.60;101865.06;3601875;39;20047;-61
2022/07/14 01:40:09;;;;;;;11.43;3.20;;;;;;;17.79;71.65;101871.81;3601190;39;20051;-61
2022/07/14 01:42:35;;;;;;;14.65;3.80;;;;;;;17.74;72.00;101864.00;3597561;39;20044;-62
2022/07/14 01:45:01;;;;;;;12.88;4.03;;;;;;;17.67;71.25;101849.13;3599916;39;20055;-62
2022/07/14 01:47:27;;;;;;;15.10;4.25;;;;;;;17.76;71.56;101861.13;3601552;39;20142;-62
2022/07/14 01:49:52;;;;;;;9.50;3.70;;;;;;;17.73;70.92;101862.25;3602306;39;20054;-62
2022/07/14 01:52:18;;;;;;;13.02;3.80;;;;;;;17.73;71.08;101862.25;3597833;39;20051;-61
2022/07/14 01:54:43;;;;;;;13.23;3.92;;;;;;;17.72;71.17;101849.63;3602213;39;20055;-62
2022/07/14 01:57:09;;;;;;;16.63;4.00;;;;;;;17.77;70.77;101854.78;3600167;39;20047;-62
2022/07/14 01:59:36;;;;;;;17.08;3.92;;;;;;;17.74;71.60;101847.66;3602584;39;20286;-61
2022/07/14 02:02:02;;;;;;;15.48;4.25;;;;;;;17.75;70.70;101854.84;3601451;39;20378;-62
2022/07/14 02:04:27;;;;;;;11.48;4.13;;;;;;;17.74;71.30;101853.13;3600704;39;20066;-61
2022/07/14 02:06:55;;;;;;;12.07;3.33;;;;;;;17.73;70.96;101851.38;3601331;39;20047;-62
2022/07/14 02:09:22;;;;;;;11.18;3.60;;;;;;;17.71;70.92;101852.47;3599867;39;20740;-61
2022/07/14 02:14:34;;;;;;;9.48;3.83;;;;;;;17.58;71.21;101852.53;3602130;39;20396;-62
2022/07/14 02:17:00;;;;;;;12.95;3.92;;;;;;;17.16;71.39;101803.97;3601251;39;20055;-61
2022/07/14 02:19:26;;;;;;;10.05;3.47;;;;;;;17.49;71.16;101854.09;3600078;39;20059;-61
2022/07/14 02:21:54;;;;;;;11.75;4.03;;;;;;;17.42;71.90;101846.53;3589424;39;20386;-62
2022/07/14 02:24:21;;;;;;;13.63;3.58;;;;;;;17.18;72.42;101812.00;3600369;39;20067;-61
2022/07/14 02:26:51;;;;;;;11.50;3.55;;;;;;;17.40;71.68;101863.78;3598272;39;20278;-61
2022/07/14 02:29:19;;;;;;;10.57;3.70;;;;;;;17.36;72.42;101862.28;3597548;39;20052;-62
2022/07/14 02:31:46;;;;;;;9.90;3.60;;;;;;;17.11;71.77;101822.47;3601014;39;20058;-61
2022/07/14 02:34:12;;;;;;;13.05;3.83;;;;;;;17.28;71.58;101858.38;3601240;39;20047;-61
2022/07/14 02:36:39;;;;;;;15.73;4.07;;;;;;;17.24;71.93;101848.72;3597565;39;20060;-61
2022/07/14 02:39:05;;;;;;;11.93;3.58;;;;;;;17.20;71.81;101842.66;3596593;39;20062;-61
2022/07/14 02:41:31;;;;;;;12.88;3.72;;;;;;;17.18;72.51;101836.47;3601414;39;20067;-61
2022/07/14 02:43:56;;;;;;;11.43;3.53;;;;;;;17.12;72.08;101839.63;3601761;39;20093;-61
2022/07/14 02:46:22;;;;;;;14.73;3.88;;;;;;;17.08;72.94;101833.56;3599718;39;20072;-61
2022/07/14 02:48:48;;;;;;;14.82;4.00;;;;;;;17.03;72.71;101829.44;3599289;39;20576;-61
2022/07/14 02:51:15;;;;;;;14.15;4.15;;;;;;;16.92;73.03;101816.66;3600138;39;20064;-62
2022/07/14 02:53:41;;;;;;;12.43;3.92;;;;;;;16.90;73.40;101826.75;3601633;39;20093;-61
2022/07/14 02:56:07;;;;;;;14.98;4.15;;;;;;;16.88;72.98;101821.44;3600414;39;20313;-61
2022/07/14 02:58:34;;;;;;;16.85;4.25;;;;;;;16.84;72.92;101817.22;3599784;39;20302;-62
2022/07/14 03:01:05;;;;;;;14.93;4.75;;;;;;;16.77;73.44;101824.03;3599464;39;20055;-61
2022/07/14 03:03:34;;;;;;;17.02;4.72;;;;;;;16.69;74.08;101821.84;3600132;39;20059;-61
2022/07/14 03:06:07;;;;;;;10.98;4.03;;;;;;;16.60;73.84;101811.66;3600670;39;20050;-61
2022/07/14 03:08:32;;;;;;;14.57;4.38;;;;;;;16.67;73.97;101822.94;3600148;39;20056;-61
2022/07/14 03:10:58;;;;;;;10.43;4.00;;;;;;;16.62;73.83;101812.44;3596463;39;20101;-61
2022/07/14 03:13:23;;;;;;;16.00;4.10;;;;;;;16.56;74.10;101821.00;3598101;39;20119;-61
2022/07/14 03:15:49;;;;;;;13.43;4.18;;;;;;;16.52;74.15;101818.59;3599757;39;20094;-62
2022/07/14 03:18:14;;;;;;;12.73;4.43;;;;;;;16.49;74.85;101814.25;3596487;39;20051;-61
2022/07/14 03:20:40;;;;;;;12.38;4.78;;;;;;;16.44;75.17;101808.31;3597718;39;20120;-61
2022/07/14 03:23:06;;;;;;;11.52;4.47;;;;;;;16.39;75.22;101792.31;3597769;39;20066;-61
2022/07/14 03:25:31;;;;;;;17.27;5.05;;;;;;;16.39;74.93;101803.19;3594157;39;20055;-61
2022/07/14 03:27:57;;;;;;;13.50;4.55;;;;;;;16.20;74.71;101770.19;3596645;39;20057;-60
2022/07/14 03:30:22;;;;;;;15.38;5.03;;;;;;;16.32;75.08;101799.19;3596900;39;20060;-61
2022/07/14 03:32:48;;;;;;;16.83;4.65;;;;;;;16.30;75.32;101792.13;3595762;39;20066;-60
2022/07/14 03:35:14;;;;;;;15.77;4.40;;;;;;;16.27;74.85;101795.94;3596180;39;20051;-60
2022/07/14 03:37:39;;;;;;;13.15;4.80;;;;;;;16.17;75.00;101789.41;3599425;39;20051;-59
2022/07/14 03:40:07;;;;;;;13.88;4.35;;;;;;;16.22;75.48;101796.25;3597294;39;20390;-60
2022/07/14 03:42:32;;;;;;;11.20;4.53;;;;;;;16.21;75.66;101799.06;3596781;39;20060;-60
2022/07/14 03:44:58;;;;;;;12.02;4.53;;;;;;;16.20;75.51;101797.31;3597487;39;20416;-60
2022/07/14 03:47:24;;;;;;;12.52;4.63;;;;;;;16.10;75.23;101791.66;3595872;39;20333;-60
2022/07/14 03:49:49;;;;;;;14.25;4.95;;;;;;;16.11;76.14;101798.84;3597863;39;20399;-61
2022/07/14 03:52:16;;;;;;;17.42;5.40;;;;;;;15.98;75.82;101788.00;3596902;39;20055;-60
2022/07/14 03:54:46;;;;;;;15.40;4.88;;;;;;;16.10;75.88;101823.34;3598936;39;20058;-60
2022/07/14 03:57:13;;;;;;;13.85;5.05;;;;;;;16.07;75.56;101823.56;3596577;39;20056;-60
2022/07/14 03:59:40;;;;;;;15.25;5.68;;;;;;;16.12;75.53;101821.41;3595664;39;20062;-60
2022/07/14 04:02:08;;;;;;;15.15;5.43;;;;;;;16.13;75.09;101839.41;3599756;39;20051;-60
2022/07/14 04:04:34;;;;;;;14.93;5.18;;;;;;;16.08;76.11;101825.28;3597209;39;20075;-60
2022/07/14 04:07:00;;;;;;;14.40;4.75;;;;;;;16.09;75.62;101837.91;3597957;39;20059;-60
2022/07/14 04:09:26;;;;;;;9.93;4.50;;;;;;;15.39;75.43;101719.72;3597895;39;20131;-61
2022/07/14 04:11:51;;;;;;;12.60;4.80;;;;;;;16.08;75.57;101841.56;3599817;39;20059;-61
2022/07/14 04:14:17;;;;;;;16.05;5.57;;;;;;;16.09;75.60;101829.75;3595965;39;20047;-61
2022/07/14 04:16:43;;;;;;;14.32;5.07;;;;;;;16.04;76.20;101830.06;3599134;39;20594;-61
2022/07/14 04:19:09;;;;;;;13.00;5.30;;;;;;;16.02;75.68;101832.91;3598599;39;20413;-61
2022/07/14 04:21:36;;;;;;;20.50;5.63;;;;;;;15.90;76.11;101806.63;3596816;39;20068;-61
2022/07/14 04:24:03;;;;;;;21.02;5.75;;;;;;;16.00;76.19;101833.97;3598485;39;20275;-61
2022/07/14 04:26:29;;;;;;;17.52;5.38;;;;;;;16.01;76.35;101825.72;3588755;39;20054;-61
2022/07/14 04:28:56;;;;;;;12.77;5.30;;;;;;;16.02;76.23;101830.19;3598137;39;20051;-61
2022/07/14 04:31:21;;;;;;;16.23;5.40;;;;;;;16.04;75.92;101821.06;3596927;39;20040;-60
2022/07/14 04:33:47;;;;;;;17.25;5.20;;;;;;;16.02;75.93;101822.06;3599248;39;20059;-61
2022/07/14 04:36:13;;;;;;;12.75;4.93;;;;;;;16.09;76.01;101827.06;3597056;39;20032;-60
2022/07/14 04:38:38;;;;;;;17.00;5.75;;;;;;;16.10;75.54;101826.94;3598308;39;20534;-60
2022/07/14 04:41:04;;;;;;;15.32;5.43;;;;;;;16.17;75.01;101830.94;3596411;39;20078;-61
2022/07/14 04:43:30;;;;;;;15.35;5.35;;;;;;;16.15;75.41;101818.50;3596818;39;20136;-61
2022/07/14 04:45:55;;;;;;;18.48;5.68;;;;;;;16.16;75.30;101814.78;3596910;39;20385;-62
2022/07/14 04:48:21;;;;;;;17.35;5.70;;;;;;;16.16;75.87;101806.66;3602499;39;20043;-61
2022/07/14 04:53:34;;;;;;;19.38;5.75;;;;;;;16.20;75.70;101803.59;3601394;39;20462;-62
2022/07/14 04:55:59;;;;;;;14.50;5.82;;;;;;;16.17;75.71;101808.38;3597447;39;20063;-62
2022/07/14 04:58:25;;;;;;;18.15;5.88;;;;;;;16.20;75.74;101816.31;3598376;39;20061;-62
2022/07/14 05:00:57;;;;;;;15.60;5.18;;;;;;;16.22;75.99;101817.94;3598017;39;20079;-62
2022/07/14 05:03:22;;;;;;;14.10;5.38;;;;;;;16.22;75.77;101817.94;3598636;39;20051;-62
2022/07/14 05:05:48;;;;;;;15.25;5.28;;;;;;;16.25;75.16;101823.16;3598594;39;20140;-62
2022/07/14 05:08:14;;;;;;;16.85;5.65;;;;;;;16.32;75.58;101833.59;3600024;39;20054;-62
2022/07/14 05:10:39;;;;;;;16.75;5.10;;;;;;;16.35;75.31;101836.94;3596811;39;20065;-62
2022/07/14 05:13:05;;;;;;;14.20;5.57;;;;;;;16.38;74.50;101842.16;3598681;39;20566;-62
2022/07/14 05:15:31;;;;;;;13.82;5.25;;;;;;;16.41;74.43;101838.38;3600117;39;20059;-62
2022/07/14 05:17:56;;;;;;;18.08;5.15;;;;;;;16.46;73.99;101841.66;3597349;39;20071;-62
2022/07/14 05:20:22;;;;;;;15.05;5.70;;;;;;;16.49;73.60;101833.25;3587657;39;20409;-61
2022/07/14 05:22:48;;;;;;;15.48;5.53;;;;;;;16.58;73.62;101823.59;3600399;39;20059;-62
2022/07/14 05:25:14;;;;;;;12.68;5.38;;;;;;;16.64;73.45;101832.16;3599413;39;20085;-62
2022/07/14 05:27:41;;;;;;;15.02;5.15;;;;;;;16.67;72.81;101823.81;3599269;39;20043;-61
2022/07/14 05:30:09;;;;;;;18.42;5.10;;;;;;;16.72;72.45;101826.22;3599511;39;20059;-61
2022/07/14 05:32:36;;;;;;;15.05;5.53;;;;;;;16.65;72.95;101814.91;3598347;39;20055;-63
2022/07/14 05:35:03;;;;;;;11.85;5.00;;;;;;;16.73;71.92;101819.78;3598751;39;20359;-63
2022/07/14 05:37:29;;;;;;;17.70;4.85;;;;;;;16.84;71.73;101830.78;3598131;39;20330;-63
2022/07/14 05:39:55;;;;;;;14.60;5.15;;;;;;;16.87;71.23;101827.84;3598642;39;20325;-63
2022/07/14 05:42:21;;;;;;;17.02;5.15;;;;;;;16.78;72.18;101803.19;3600799;39;20062;-63
2022/07/14 05:44:48;;;;;;;12.65;4.90;;;;;;;16.97;71.42;101824.44;3599144;39;20085;-63
2022/07/14 05:47:14;;;;;;;18.60;4.85;;;;;;;16.79;71.92;101784.09;3600749;39;20095;-63
2022/07/14 05:49:41;;;;;;;15.02;5.20;;;;;;;17.09;70.93;101838.00;3600882;39;20179;-63
2022/07/14 05:52:10;;;;;;;14.20;4.95;;;;;;;16.49;70.58;101713.81;3602160;39;20438;-63
2022/07/14 05:54:36;;;;;;;13.40;4.53;;;;;;;17.24;70.03;101836.00;3601707;39;20067;-63
2022/07/14 05:57:02;;;;;;;20.25;5.20;;;;;;;17.18;70.19;101812.00;3600500;39;20051;-64
2022/07/14 05:59:27;;;;;;;15.57;5.45;;;;;;;17.37;70.37;101823.25;3599102;39;20051;-62
2022/07/14 06:01:53;;;;;;;16.35;4.93;;;;;;;17.49;70.05;101826.03;3598730;39;20050;-63
2022/07/14 06:04:18;;;;;;;13.35;4.57;;;;;;;17.55;70.21;101829.16;3599480;39;20386;-63
2022/07/14 06:06:49;;;;;;;12.55;4.53;;;;;;;17.66;69.11;101824.75;3599738;39;20073;-63
2022/07/14 06:09:15;;;;;;;18.85;4.70;;;;;;;17.74;69.21;101819.63;3600172;39;20400;-62
2022/07/14 06:11:44;;;;;;;16.83;3.97;;;;;;;17.85;68.79;101827.84;3599948;39;20071;-62
2022/07/14 06:14:10;;;;;;;13.63;3.85;;;;;;;18.00;67.71;101825.81;3599727;39;20557;-62
2022/07/14 06:16:36;;;;;;;14.38;4.00;;;;;;;18.08;67.50;101836.97;3597467;39;20055;-62
2022/07/14 06:19:03;;;;;;;15.80;4.25;;;;;;;18.13;66.72;101832.03;3599895;39;20057;-62
2022/07/14 06:21:28;;;;;;;12.05;3.88;;;;;;;18.25;66.66;101825.63;3595669;39;20305;-62
2022/07/14 06:23:54;;;;;;;13.00;3.90;;;;;;;18.42;66.72;101820.69;3600736;39;20068;-62
2022/07/14 06:26:20;;;;;;;13.10;3.70;;;;;;;18.59;65.81;101816.66;3600730;39;20302;-62
2022/07/14 06:28:49;;;;;;;14.85;3.85;;;;;;;18.69;65.18;101809.47;3598866;39;20540;-62
2022/07/14 06:31:15;;;;;;;12.95;3.60;;;;;;;18.91;63.46;101817.66;3597938;39;20061;-62
2022/07/14 06:33:41;;;;;;;12.98;3.05;;;;;;;19.07;64.16;101822.72;3598074;39;20126;-62
2022/07/14 06:36:09;;;;;;;16.23;3.70;;;;;;;19.20;62.39;101826.19;3599531;39;20055;-64
2022/07/14 06:38:37;;;;;;;11.77;3.22;;;;;;;19.21;62.10;101814.28;3598770;39;20051;-63
2022/07/14 06:41:03;;;;;;;12.68;2.90;;;;;;;19.45;61.45;101832.34;3598317;39;20116;-63
2022/07/14 06:43:28;;;;;;;13.50;3.30;;;;;;;19.54;60.69;101831.56;3592178;39;20043;-63
2022/07/14 06:45:54;;;;;;;9.80;3.17;;;;;;;19.69;60.87;101834.88;3598690;39;20047;-63
2022/07/14 06:48:23;;;;;;;17.58;3.67;;;;;;;19.92;61.02;101835.69;3599162;39;20051;-63
2022/07/14 06:50:49;;;;;;;11.73;3.40;;;;;;;20.08;60.18;101847.00;3600419;39;20350;-63
2022/07/14 06:53:15;;;;;;;12.98;3.72;;;;;;;20.11;59.63;101840.44;3600074;39;20279;-63
2022/07/14 06:55:41;;;;;;;12.93;3.70;;;;;;;20.18;59.30;101836.16;3598488;39;20076;-63
2022/07/14 06:58:06;;;;;;;12.98;3.75;;;;;;;20.25;57.98;101840.06;3599185;39;20127;-63
2022/07/14 07:00:32;;;;;;;10.60;3.40;;;;;;;20.32;58.51;101821.28;3599437;39;20055;-63
2022/07/14 07:02:57;;;;;;;12.15;4.00;;;;;;;20.36;57.76;101823.66;3594471;39;20051;-63
2022/07/14 07:08:08;;;;;;;14.45;4.90;;;;;;;20.47;57.40;101819.94;3600757;39;20117;-63
2022/07/14 07:10:40;;;;;;;10.93;4.35;;;;;;;20.49;57.39;101823.44;3595379;39;20055;-63
2022/07/14 07:13:09;;;;;;;14.35;4.10;;;;;;;20.63;56.58;101834.03;3600038;39;20087;-63
2022/07/14 07:15:38;;;;;;;10.75;4.20;;;;;;;20.82;57.28;101829.66;3598224;39;20094;-63
2022/07/14 07:18:06;;;;;;;11.05;4.63;;;;;;;20.93;55.41;101826.84;3599191;39;20063;-64
2022/07/14 07:20:34;;;;;;;13.65;4.68;;;;;;;20.97;54.61;101827.44;3594505;39;20390;-63
2022/07/14 07:23:00;;;;;;;13.13;3.90;;;;;;;20.86;55.44;101790.09;3600379;39;20968;-63
2022/07/14 07:25:27;;;;;;;10.25;3.80;;;;;;;21.18;53.92;101819.13;3599711;39;20387;-63
2022/07/14 07:27:53;;;;;;;13.52;4.15;;;;;;;21.23;53.77;101823.19;3598814;39;20055;-64
2022/07/14 07:30:18;;;;;;;10.80;4.00;;;;;;;21.35;54.25;101823.06;3598635;39;20059;-63
2022/07/14 07:32:44;;;;;;;11.18;3.90;;;;;;;21.55;54.13;101817.50;3597468;39;20161;-64
2022/07/14 07:35:10;;;;;;;12.10;3.83;;;;;;;21.71;53.45;101816.94;3600533;39;20388;-64
2022/07/14 07:37:36;;;;;;;9.35;3.83;;;;;;;21.70;53.87;101815.22;3597278;39;20059;-64
2022/07/14 07:40:01;;;;;;;12.70;4.10;;;;;;;21.83;53.11;101819.56;3598902;39;20341;-64
2022/07/14 07:42:28;;;;;;;10.38;3.13;;;;;;;21.90;52.08;101807.88;3599086;39;20057;-64
2022/07/14 07:44:55;;;;;;;10.23;3.35;;;;;;;21.78;52.91;101792.59;3596626;39;20092;-64
2022/07/14 07:47:23;;;;;;;15.57;3.58;;;;;;;21.89;52.21;101806.16;3599153;39;20039;-64
2022/07/14 07:49:49;;;;;;;10.55;3.45;;;;;;;21.94;51.66;101794.75;3599915;39;20107;-64
2022/07/14 07:52:14;;;;;;;10.60;3.58;;;;;;;21.97;51.37;101795.31;3597263;39;20062;-64
2022/07/14 07:54:41;;;;;;;10.88;3.58;;;;;;;22.20;51.58;101800.50;3596366;39;20106;-64
2022/07/14 07:57:06;;;;;;;10.35;3.53;;;;;;;22.32;51.88;101793.84;3599464;39;20064;-65
2022/07/14 07:59:32;;;;;;;11.70;3.80;;;;;;;22.47;51.09;101791.50;3598615;39;20078;-64
2022/07/14 08:01:58;;;;;;;11.65;3.67;;;;;;;22.62;50.21;101790.03;3595880;39;20837;-64
2022/07/14 08:04:23;;;;;;;12.57;3.50;;;;;;;22.60;50.62;101785.69;3598049;39;20043;-64
2022/07/14 08:06:49;;;;;;;10.60;3.33;;;;;;;22.72;49.07;101776.28;3596080;39;20397;-64
2022/07/14 08:09:14;;;;;;;11.45;3.28;;;;;;;22.85;48.91;101781.41;3597763;39;20062;-64
2022/07/14 08:11:42;;;;;;;11.13;3.80;;;;;;;22.83;48.58;101784.28;3596454;39;20063;-64
2022/07/14 08:16:55;;;;;;;12.88;3.58;;;;;;;22.83;49.91;101742.31;3598710;39;20070;-64
2022/07/14 08:19:20;;;;;;;10.75;3.35;;;;;;;23.14;48.09;101773.91;3596837;39;20062;-64
2022/07/14 08:21:46;;;;;;;8.45;3.22;;;;;;;23.28;50.04;101767.06;3597172;39;20330;-64
2022/07/14 08:24:12;;;;;;;9.55;3.08;;;;;;;23.47;47.08;101770.66;3598167;39;20086;-64
2022/07/14 08:26:39;;;;;;;9.02;2.70;;;;;;;23.61;46.25;101775.59;3597295;39;20047;-64
2022/07/14 08:29:06;;;;;;;10.68;3.28;;;;;;;23.46;46.78;101746.97;3598408;39;20063;-64
2022/07/14 08:31:32;;;;;;;8.18;2.95;;;;;;;23.63;47.12;101774.44;3598119;39;20054;-63
2022/07/14 08:33:58;;;;;;;7.68;2.72;;;;;;;23.72;46.60;101778.13;3599219;39;20051;-64
2022/07/14 08:36:23;;;;;;;11.98;2.83;;;;;;;24.01;45.22;101768.78;3596597;39;20108;-63
2022/07/14 08:38:49;;;;;;;8.35;2.55;;;;;;;24.06;44.02;101774.66;3596064;39;20108;-63
2022/07/14 08:41:15;;;;;;;8.32;2.53;;;;;;;24.00;44.00;101767.03;3596832;39;20158;-65
2022/07/14 08:43:42;;;;;;;9.55;2.67;;;;;;;23.84;43.27;101771.38;3594483;39;20052;-64
2022/07/14 08:46:08;;;;;;;9.82;2.83;;;;;;;23.76;44.69;101774.06;3597811;39;20298;-64
2022/07/14 08:48:33;;;;;;;9.25;2.70;;;;;;;23.75;44.38;101777.81;3596855;39;20063;-64
2022/07/14 08:51:00;;;;;;;9.27;2.80;;;;;;;23.72;45.54;101771.78;3597862;39;20047;-65
2022/07/14 08:53:27;;;;;;;10.95;3.40;;;;;;;23.73;45.59;101779.03;3598793;39;20061;-65
2022/07/14 08:55:53;;;;;;;8.88;2.78;;;;;;;23.84;44.46;101774.13;3594531;39;20402;-64
2022/07/14 08:58:19;;;;;;;10.32;3.10;;;;;;;23.91;44.02;101776.25;3597966;39;20056;-65
2022/07/14 09:00:45;;;;;;;8.98;2.83;;;;;;;23.95;45.73;101750.19;3597713;39;20067;-64
2022/07/14 09:03:10;;;;;;;6.90;2.58;;;;;;;24.31;43.94;101768.31;3597417;39;20554;-64
2022/07/14 09:05:45;;;;;;;8.50;3.03;;;;;;;24.66;42.97;101765.63;3591079;39;20055;-65
2022/07/14 09:08:14;;;;;;;7.65;2.75;;;;;;;24.80;43.65;101762.22;3598992;39;20051;-64
2022/07/14 09:10:43;;;;;;;7.55;2.80;;;;;;;24.96;41.12;101761.44;3595872;39;20070;-64
2022/07/14 09:13:19;;;;;;;12.25;3.00;;;;;;;25.14;40.74;101758.59;3596938;39;20393;-65
2022/07/14 09:15:47;;;;;;;8.98;2.65;;;;;;;25.37;40.69;101758.81;3596746;39;20082;-65
2022/07/14 09:18:24;;;;;;;8.02;2.60;;;;;;;25.52;42.24;101756.28;3599788;39;20055;-65
2022/07/14 09:20:52;;;;;;;6.93;2.90;;;;;;;25.66;39.98;101759.22;3594988;39;20056;-64
2022/07/14 09:23:35;;;;;;;7.15;2.55;;;;;;;25.91;40.09;101759.25;3598317;39;20059;-65
2022/07/14 09:26:21;;;;;;;7.32;2.65;;;;;;;26.16;39.99;101758.22;3598448;39;20051;-65
2022/07/14 09:28:50;;;;;;;6.10;2.45;;;;;;;26.28;38.02;101761.44;3598212;39;20374;-65
2022/07/14 09:31:30;;;;;;;4.13;1.95;;;;;;;26.33;38.90;101760.94;3597999;39;20152;-65
2022/07/14 09:34:00;;;;;;;7.35;2.20;;;;;;;25.87;38.34;101752.38;3598006;39;20417;-65
2022/07/14 09:36:33;;;;;;;7.32;2.38;;;;;;;26.10;38.30;101756.16;3598494;39;20054;-64
2022/07/14 09:39:12;;;;;;;7.38;2.38;;;;;;;26.30;36.63;101756.63;3598982;39;20457;-65
2022/07/14 09:41:54;;;;;;;6.72;2.20;;;;;;;26.48;37.98;101752.78;3597740;39;20070;-64
2022/07/14 09:44:21;;;;;;;7.17;2.30;;;;;;;26.46;35.87;101750.22;3597883;39;20058;-64
2022/07/14 09:46:54;;;;;;;6.97;1.52;;;;;;;26.62;33.18;101747.41;3596311;39;20066;-64
2022/07/14 09:49:24;;;;;;;3.40;1.30;;;;;;;26.67;31.58;101751.53;3591742;39;20399;-64
2022/07/14 09:52:04;;;;;;;4.80;1.50;;;;;;;26.69;32.47;101747.56;3599780;39;20455;-64
2022/07/14 09:54:49;;;;;;;4.80;1.75;;;;;;;26.87;32.23;101752.84;3597872;39;20115;-64
2022/07/14 09:57:15;;;;;;;3.90;1.58;;;;;;;26.89;33.65;101756.28;3599529;39;20043;-64
2022/07/14 09:59:57;;;;;;;4.72;1.88;;;;;;;26.76;33.02;101756.00;3597501;39;20272;-64
2022/07/14 10:02:26;;;;;;;6.20;1.92;;;;;;;26.89;33.95;101758.16;3599307;39;20049;-64
2022/07/14 10:04:55;;;;;;;5.50;2.10;;;;;;;27.00;32.94;101755.88;3602319;39;20043;-64
2022/07/14 10:07:23;;;;;;;5.43;1.88;;;;;;;27.04;33.29;101760.00;3597299;39;20401;-64
2022/07/14 10:10:04;;;;;;;4.15;1.63;;;;;;;26.95;31.08;101750.03;3597364;39;20069;-64
2022/07/14 10:12:30;;;;;;;6.32;1.70;;;;;;;27.31;31.64;101753.16;3598458;39;20299;-64
2022/07/14 10:15:01;;;;;;;6.13;1.90;;;;;;;27.24;33.65;101759.56;3598543;39;20068;-64
2022/07/14 10:17:30;;;;;;;4.95;1.80;;;;;;;27.08;33.63;101763.25;3598254;39;20055;-64
2022/07/14 10:19:57;;;;;;;5.25;2.00;;;;;;;26.78;34.33;101757.53;3597580;39;20058;-64
2022/07/14 10:22:23;;;;;;;6.22;2.00;;;;;;;26.44;35.27;101763.31;3592055;39;20053;-63
2022/07/14 10:24:50;;;;;;;5.10;2.00;;;;;;;26.22;35.24;101761.28;3597638;39;20059;-64
2022/07/14 10:27:20;;;;;;;4.97;2.00;;;;;;;26.20;35.26;101760.59;3597900;39;20106;-64
2022/07/14 10:29:52;;;;;;;5.68;2.00;;;;;;;26.43;34.47;101760.72;3598510;39;20051;-64
2022/07/14 10:33:01;;;;;;;4.97;1.67;;;;;;;26.66;34.60;101756.19;3600301;39;20051;-64
2022/07/14 10:35:40;;;;;;;3.50;1.63;;;;;;;26.75;34.38;101768.06;3595957;39;20056;-64
2022/07/14 10:38:17;;;;;;;4.20;1.88;;;;;;;26.73;33.11;101767.38;3596346;39;20056;-64
2022/07/14 10:41:04;;;;;;;4.50;1.77;;;;;;;26.57;33.23;101769.16;3598914;39;20065;-64
2022/07/14 10:44:05;;;;;;;3.58;1.50;;;;;;;26.26;34.96;101770.91;3596861;39;20405;-64
2022/07/14 10:46:40;;;;;;;6.38;2.47;;;;;;;26.17;35.37;101764.56;3598081;39;20048;-64
2022/07/14 10:49:12;;;;;;;4.45;1.85;;;;;;;26.12;35.52;101762.31;3599614;39;20070;-64
2022/07/14 10:51:52;;;;;;;5.28;1.73;;;;;;;26.41;34.58;101760.91;3598016;39;20067;-64
2022/07/14 10:54:29;;;;;;;4.38;1.50;;;;;;;26.71;35.98;101741.88;3599843;39;20057;-64
2022/07/14 10:57:17;;;;;;;5.90;1.80;;;;;;;27.07;33.44;101762.41;3598194;39;20051;-64
2022/07/14 10:59:48;;;;;;;3.88;1.50;;;;;;;27.15;32.89;101763.41;3597412;39;20352;-64
2022/07/14 11:02:13;;;;;;;2.55;1.63;;;;;;;27.28;31.85;101761.81;3597523;39;20070;-64
2022/07/14 11:05:08;;;;;;;4.80;1.60;;;;;;;27.76;33.54;101770.78;3597609;39;20055;-64
2022/07/14 11:07:47;;;;;;;3.55;1.75;;;;;;;27.90;32.00;101759.97;3596326;39;20082;-64
2022/07/14 11:10:18;;;;;;;2.97;1.42;;;;;;;27.68;31.74;101758.91;3599955;39;20083;-64
2022/07/14 11:12:59;;;;;;;3.38;1.50;;;;;;;28.19;31.14;101764.72;3596487;39;20055;-64
2022/07/14 11:15:46;;;;;;;2.45;1.40;;;;;;;28.44;31.95;101759.81;3598578;39;20050;-64
2022/07/14 11:18:17;;;;;;;5.60;1.73;;;;;;;28.78;31.44;101775.84;3597765;39;20099;-64
2022/07/14 11:21:01;;;;;;;6.85;1.73;;;;;;;28.93;30.64;101767.53;3598673;39;20062;-64
2022/07/14 11:23:31;;;;;;;5.47;1.58;;;;;;;28.91;30.79;101770.47;3597272;39;20050;-64
2022/07/14 11:26:05;;;;;;;4.72;1.65;;;;;;;28.63;31.46;101767.53;3596934;39;20082;-64
2022/07/14 11:28:49;;;;;;;5.93;1.80;;;;;;;28.20;31.31;101761.78;3597106;39;20043;-63
2022/07/14 11:31:16;;;;;;;4.28;1.92;;;;;;;28.10;31.65;101757.53;3597098;39;20063;-64
2022/07/14 11:37:01;;;;;;;8.25;1.77;;;;;;;28.35;31.03;101744.31;3598738;39;20571;-64